sensor_id;sensor_type;location;lat;lon;timestamp;pressure;altitude;pressure_sealevel;temperature;humidity
23433;BME280;41331;45.412;10.992;2024-01-15T00:00:55;99992.28;;;2.90;100.00
23433;BME280;41331;45.412;10.992;2024-01-15T00:03:24;99984.81;;;2.87;100.00
23433;BME280;41331;45.412;10.992;2024-01-15T00:05:52;99979.75;;;2.80;100.00
23433;BME280;41331;45.412;10.992;2024-01-15T00:08:20;99981.72;;;2.75;100.00
23433;BME280;41331;45.412;10.992;2024-01-15T00:10:48;99977.72;;;2.72;100.00
23433;BME280;41331;45.412;10.992;2024-01-15T00:13:16;99972.91;;;2.69;100.00
23433;BME280;41331;45.412;10.992;2024-01-15T00:15:43;99975.16;;;2.62;100.00
23433;BME280;41331;45.412;10.992;2024-01-15T00:18:11;99957.44;;;2.61;100.00
23433;BME280;41331;45.412;10.992;2024-01-15T00:20:40;99957.72;;;2.59;100.00
23433;BME280;41331;45.412;10.992;2024-01-15T00:23:07;99952.41;;;2.54;100.00
23433;BME280;41331;45.412;10.992;2024-01-15T00:25:35;99962.63;;;2.52;100.00
23433;BME280;41331;45.412;10.992;2024-01-15T00:28:03;99968.28;;;2.51;100.00
23433;BME280;41331;45.412;10.992;2024-01-15T00:30:31;99965.31;;;2.52;100.00
23433;BME280;41331;45.412;10.992;2024-01-15T00:32:59;99951.59;;;2.54;100.00
23433;BME280;41331;45.412;10.992;2024-01-15T00:35:26;99950.50;;;2.55;100.00
23433;BME280;41331;45.412;10.992;2024-01-15T00:37:54;99955.09;;;2.54;100.00
23433;BME280;41331;45.412;10.992;2024-01-15T00:40:22;99956.97;;;2.54;100.00
23433;BME280;41331;45.412;10.992;2024-01-15T00:42:50;99958.56;;;2.55;100.00
23433;BME280;41331;45.412;10.992;2024-01-15T00:45:17;99963.03;;;2.65;100.00
23433;BME280;41331;45.412;10.992;2024-01-15T00:47:45;99959.84;;;2.63;100.00
23433;BME280;41331;45.412;10.992;2024-01-15T00:50:13;99961.19;;;2.60;100.00
23433;BME280;41331;45.412;10.992;2024-01-15T00:52:41;99947.69;;;2.65;100.00
23433;BME280;41331;45.412;10.992;2024-01-15T00:55:09;99940.56;;;2.55;100.00
23433;BME280;41331;45.412;10.992;2024-01-15T00:57:36;99935.78;;;2.52;100.00
23433;BME280;41331;45.412;10.992;2024-01-15T01:00:05;99932.00;;;2.53;100.00
23433;BME280;41331;45.412;10.992;2024-01-15T01:02:34;99934.38;;;2.55;100.00
23433;BME280;41331;45.412;10.992;2024-01-15T01:05:01;99931.19;;;2.53;100.00
23433;BME280;41331;45.412;10.992;2024-01-15T01:07:29;99939.50;;;2.56;100.00
23433;BME280;41331;45.412;10.992;2024-01-15T01:09:57;99937.59;;;2.57;100.00
23433;BME280;41331;45.412;10.992;2024-01-15T01:12:24;99941.81;;;2.63;100.00
23433;BME280;41331;45.412;10.992;2024-01-15T01:14:52;99942.38;;;2.60;100.00
23433;BME280;41331;45.412;10.992;2024-01-15T01:17:20;99929.47;;;2.62;100.00
23433;BME280;41331;45.412;10.992;2024-01-15T01:19:49;99919.69;;;2.71;100.00
23433;BME280;41331;45.412;10.992;2024-01-15T01:22:17;99916.19;;;2.71;100.00
23433;BME280;41331;45.412;10.992;2024-01-15T01:24:44;99904.94;;;2.69;100.00
23433;BME280;41331;45.412;10.992;2024-01-15T01:27:12;99908.13;;;2.71;100.00
23433;BME280;41331;45.412;10.992;2024-01-15T01:29:40;99903.72;;;2.80;100.00
23433;BME280;41331;45.412;10.992;2024-01-15T01:32:08;99902.84;;;2.84;100.00
23433;BME280;41331;45.412;10.992;2024-01-15T01:34:40;99890.94;;;2.91;100.00
23433;BME280;41331;45.412;10.992;2024-01-15T01:37:13;99888.31;;;2.85;100.00
23433;BME280;41331;45.412;10.992;2024-01-15T01:39:42;99888.91;;;2.82;100.00
23433;BME280;41331;45.412;10.992;2024-01-15T01:42:10;99883.66;;;2.72;100.00
23433;BME280;41331;45.412;10.992;2024-01-15T01:44:39;99890.06;;;2.76;100.00
23433;BME280;41331;45.412;10.992;2024-01-15T01:47:07;99889.63;;;2.69;100.00
23433;BME280;41331;45.412;10.992;2024-01-15T01:49:35;99881.56;;;2.69;100.00
23433;BME280;41331;45.412;10.992;2024-01-15T01:52:05;99872.69;;;2.69;100.00
23433;BME280;41331;45.412;10.992;2024-01-15T01:54:35;99872.47;;;2.65;100.00
23433;BME280;41331;45.412;10.992;2024-01-15T01:57:05;99879.38;;;2.71;100.00
23433;BME280;41331;45.412;10.992;2024-01-15T01:59:34;99865.66;;;2.73;100.00
23433;BME280;41331;45.412;10.992;2024-01-15T02:02:02;99855.72;;;2.73;100.00
23433;BME280;41331;45.412;10.992;2024-01-15T02:04:31;99851.63;;;2.76;100.00
23433;BME280;41331;45.412;10.992;2024-01-15T02:07:00;99859.91;;;2.79;100.00
23433;BME280;41331;45.412;10.992;2024-01-15T02:09:28;99850.63;;;2.72;100.00
23433;BME280;41331;45.412;10.992;2024-01-15T02:11:56;99847.34;;;2.75;100.00
23433;BME280;41331;45.412;10.992;2024-01-15T02:14:23;99841.16;;;2.74;100.00
23433;BME280;41331;45.412;10.992;2024-01-15T02:16:53;99835.06;;;2.69;100.00
23433;BME280;41331;45.412;10.992;2024-01-15T02:19:20;99831.09;;;2.66;100.00
23433;BME280;41331;45.412;10.992;2024-01-15T02:21:48;99830.78;;;2.68;100.00
23433;BME280;41331;45.412;10.992;2024-01-15T02:24:16;99830.06;;;2.62;100.00
23433;BME280;41331;45.412;10.992;2024-01-15T02:26:44;99808.91;;;2.55;100.00
23433;BME280;41331;45.412;10.992;2024-01-15T02:29:12;99816.78;;;2.52;100.00
23433;BME280;41331;45.412;10.992;2024-01-15T02:31:40;99806.38;;;2.45;100.00
23433;BME280;41331;45.412;10.992;2024-01-15T02:34:08;99808.69;;;2.33;100.00
23433;BME280;41331;45.412;10.992;2024-01-15T02:36:36;99805.34;;;2.22;100.00
23433;BME280;41331;45.412;10.992;2024-01-15T02:39:03;99799.38;;;2.25;100.00
23433;BME280;41331;45.412;10.992;2024-01-15T02:41:31;99796.69;;;2.25;100.00
23433;BME280;41331;45.412;10.992;2024-01-15T02:43:59;99801.06;;;2.21;100.00
23433;BME280;41331;45.412;10.992;2024-01-15T02:46:26;99813.66;;;2.21;100.00
23433;BME280;41331;45.412;10.992;2024-01-15T02:48:54;99816.59;;;2.24;100.00
23433;BME280;41331;45.412;10.992;2024-01-15T02:51:22;99816.53;;;2.29;100.00
23433;BME280;41331;45.412;10.992;2024-01-15T02:53:50;99818.94;;;2.31;100.00
23433;BME280;41331;45.412;10.992;2024-01-15T02:56:18;99829.44;;;2.27;100.00
23433;BME280;41331;45.412;10.992;2024-01-15T02:58:45;99822.50;;;2.26;100.00
23433;BME280;41331;45.412;10.992;2024-01-15T03:01:13;99821.78;;;2.16;100.00
23433;BME280;41331;45.412;10.992;2024-01-15T03:03:41;99822.09;;;2.14;100.00
23433;BME280;41331;45.412;10.992;2024-01-15T03:06:10;99815.78;;;2.24;100.00
23433;BME280;41331;45.412;10.992;2024-01-15T03:08:40;99806.50;;;2.35;100.00
23433;BME280;41331;45.412;10.992;2024-01-15T03:11:08;99798.38;;;2.40;100.00
23433;BME280;41331;45.412;10.992;2024-01-15T03:13:36;99798.97;;;2.37;100.00
23433;BME280;41331;45.412;10.992;2024-01-15T03:16:05;99804.94;;;2.53;100.00
23433;BME280;41331;45.412;10.992;2024-01-15T03:18:33;99796.25;;;2.61;100.00
23433;BME280;41331;45.412;10.992;2024-01-15T03:21:04;99796.25;;;2.61;100.00
23433;BME280;41331;45.412;10.992;2024-01-15T03:23:32;99788.69;;;2.63;100.00
23433;BME280;41331;45.412;10.992;2024-01-15T03:26:00;99782.13;;;2.69;100.00
23433;BME280;41331;45.412;10.992;2024-01-15T03:28:28;99777.78;;;2.73;100.00
23433;BME280;41331;45.412;10.992;2024-01-15T03:30:57;99771.91;;;2.71;100.00
23433;BME280;41331;45.412;10.992;2024-01-15T03:33:25;99766.00;;;2.69;100.00
23433;BME280;41331;45.412;10.992;2024-01-15T03:35:53;99761.31;;;2.61;100.00
23433;BME280;41331;45.412;10.992;2024-01-15T03:38:20;99751.84;;;2.45;100.00
23433;BME280;41331;45.412;10.992;2024-01-15T03:40:48;99747.66;;;2.57;100.00
23433;BME280;41331;45.412;10.992;2024-01-15T03:43:16;99743.09;;;2.58;100.00
23433;BME280;41331;45.412;10.992;2024-01-15T03:45:45;99739.88;;;2.56;100.00
23433;BME280;41331;45.412;10.992;2024-01-15T03:48:13;99746.16;;;2.51;100.00
23433;BME280;41331;45.412;10.992;2024-01-15T03:50:41;99736.41;;;2.37;100.00
23433;BME280;41331;45.412;10.992;2024-01-15T03:53:08;99739.16;;;2.50;100.00
23433;BME280;41331;45.412;10.992;2024-01-15T03:55:36;99737.13;;;2.42;100.00
23433;BME280;41331;45.412;10.992;2024-01-15T03:58:04;99728.47;;;2.45;100.00
23433;BME280;41331;45.412;10.992;2024-01-15T04:00:32;99735.72;;;2.64;100.00
23433;BME280;41331;45.412;10.992;2024-01-15T04:03:00;99729.34;;;2.59;100.00
23433;BME280;41331;45.412;10.992;2024-01-15T04:05:28;99721.38;;;2.54;100.00
23433;BME280;41331;45.412;10.992;2024-01-15T04:07:56;99712.66;;;2.44;100.00
23433;BME280;41331;45.412;10.992;2024-01-15T04:10:23;99710.69;;;2.49;100.00
23433;BME280;41331;45.412;10.992;2024-01-15T04:12:51;99706.03;;;2.55;100.00
23433;BME280;41331;45.412;10.992;2024-01-15T04:15:19;99707.78;;;2.46;100.00
23433;BME280;41331;45.412;10.992;2024-01-15T04:17:47;99705.84;;;2.32;100.00
23433;BME280;41331;45.412;10.992;2024-01-15T04:20:14;99702.94;;;2.29;100.00
23433;BME280;41331;45.412;10.992;2024-01-15T04:22:43;99703.47;;;2.31;100.00
23433;BME280;41331;45.412;10.992;2024-01-15T04:25:14;99698.38;;;2.29;100.00
23433;BME280;41331;45.412;10.992;2024-01-15T04:27:41;99687.06;;;2.32;100.00
23433;BME280;41331;45.412;10.992;2024-01-15T04:30:10;99680.09;;;2.31;100.00
23433;BME280;41331;45.412;10.992;2024-01-15T04:32:38;99686.34;;;2.27;100.00
23433;BME280;41331;45.412;10.992;2024-01-15T04:35:06;99692.44;;;2.32;100.00
23433;BME280;41331;45.412;10.992;2024-01-15T04:37:33;99694.59;;;2.30;100.00
23433;BME280;41331;45.412;10.992;2024-01-15T04:40:02;99686.97;;;2.38;100.00
23433;BME280;41331;45.412;10.992;2024-01-15T04:42:31;99691.25;;;2.39;100.00
23433;BME280;41331;45.412;10.992;2024-01-15T04:44:59;99688.78;;;2.42;100.00
23433;BME280;41331;45.412;10.992;2024-01-15T04:47:27;99691.19;;;2.44;100.00
23433;BME280;41331;45.412;10.992;2024-01-15T04:49:54;99677.28;;;2.55;100.00
23433;BME280;41331;45.412;10.992;2024-01-15T04:52:22;99682.31;;;2.62;100.00
23433;BME280;41331;45.412;10.992;2024-01-15T04:54:50;99675.75;;;2.68;100.00
23433;BME280;41331;45.412;10.992;2024-01-15T04:57:18;99675.03;;;2.63;100.00
23433;BME280;41331;45.412;10.992;2024-01-15T04:59:46;99674.06;;;2.72;100.00
23433;BME280;41331;45.412;10.992;2024-01-15T05:02:14;99668.88;;;2.76;100.00
23433;BME280;41331;45.412;10.992;2024-01-15T05:04:41;99670.13;;;2.83;100.00
23433;BME280;41331;45.412;10.992;2024-01-15T05:07:09;99662.44;;;2.77;100.00
23433;BME280;41331;45.412;10.992;2024-01-15T05:09:37;99660.56;;;2.77;100.00
23433;BME280;41331;45.412;10.992;2024-01-15T05:12:04;99663.50;;;2.76;100.00
23433;BME280;41331;45.412;10.992;2024-01-15T05:14:32;99658.53;;;2.69;100.00
23433;BME280;41331;45.412;10.992;2024-01-15T05:17:00;99653.25;;;2.64;100.00
23433;BME280;41331;45.412;10.992;2024-01-15T05:19:28;99648.66;;;2.65;100.00
23433;BME280;41331;45.412;10.992;2024-01-15T05:21:56;99642.84;;;2.76;100.00
23433;BME280;41331;45.412;10.992;2024-01-15T05:24:24;99649.00;;;2.77;100.00
23433;BME280;41331;45.412;10.992;2024-01-15T05:26:53;99644.22;;;2.74;100.00
23433;BME280;41331;45.412;10.992;2024-01-15T05:29:24;99637.03;;;2.69;100.00
23433;BME280;41331;45.412;10.992;2024-01-15T05:31:54;99628.88;;;2.74;100.00
23433;BME280;41331;45.412;10.992;2024-01-15T05:34:25;99637.47;;;2.76;100.00
23433;BME280;41331;45.412;10.992;2024-01-15T05:36:53;99627.31;;;2.87;100.00
23433;BME280;41331;45.412;10.992;2024-01-15T05:39:21;99624.44;;;2.83;100.00
23433;BME280;41331;45.412;10.992;2024-01-15T05:41:50;99623.13;;;2.95;100.00
23433;BME280;41331;45.412;10.992;2024-01-15T05:44:18;99624.22;;;2.80;100.00
23433;BME280;41331;45.412;10.992;2024-01-15T05:46:46;99627.13;;;2.83;100.00
23433;BME280;41331;45.412;10.992;2024-01-15T05:49:13;99622.03;;;2.82;100.00
23433;BME280;41331;45.412;10.992;2024-01-15T05:51:41;99608.41;;;2.78;100.00
23433;BME280;41331;45.412;10.992;2024-01-15T05:54:09;99606.19;;;2.80;100.00
23433;BME280;41331;45.412;10.992;2024-01-15T05:56:37;99607.16;;;2.71;100.00
23433;BME280;41331;45.412;10.992;2024-01-15T05:59:05;99616.56;;;2.73;100.00
23433;BME280;41331;45.412;10.992;2024-01-15T06:01:32;99600.63;;;2.77;100.00
23433;BME280;41331;45.412;10.992;2024-01-15T06:04:00;99613.84;;;2.73;100.00
23433;BME280;41331;45.412;10.992;2024-01-15T06:06:28;99606.59;;;2.74;100.00
23433;BME280;41331;45.412;10.992;2024-01-15T06:08:57;99617.44;;;2.69;100.00
23433;BME280;41331;45.412;10.992;2024-01-15T06:11:30;99622.59;;;2.65;100.00
23433;BME280;41331;45.412;10.992;2024-01-15T06:13:58;99618.75;;;2.71;100.00
23433;BME280;41331;45.412;10.992;2024-01-15T06:16:26;99623.13;;;2.81;100.00
23433;BME280;41331;45.412;10.992;2024-01-15T06:18:54;99625.63;;;2.91;100.00
23433;BME280;41331;45.412;10.992;2024-01-15T06:21:22;99617.38;;;2.88;100.00
23433;BME280;41331;45.412;10.992;2024-01-15T06:23:50;99613.59;;;2.89;100.00
23433;BME280;41331;45.412;10.992;2024-01-15T06:26:17;99613.59;;;2.89;100.00
23433;BME280;41331;45.412;10.992;2024-01-15T06:28:45;99618.66;;;2.90;100.00
23433;BME280;41331;45.412;10.992;2024-01-15T06:31:13;99606.00;;;2.91;100.00
23433;BME280;41331;45.412;10.992;2024-01-15T06:33:40;99611.69;;;2.89;100.00
23433;BME280;41331;45.412;10.992;2024-01-15T06:36:09;99621.84;;;2.92;100.00
23433;BME280;41331;45.412;10.992;2024-01-15T06:38:38;99619.25;;;2.87;100.00
23433;BME280;41331;45.412;10.992;2024-01-15T06:41:06;99608.00;;;2.85;100.00
23433;BME280;41331;45.412;10.992;2024-01-15T06:43:33;99609.22;;;2.93;100.00
23433;BME280;41331;45.412;10.992;2024-01-15T06:46:01;99603.13;;;3.01;100.00
23433;BME280;41331;45.412;10.992;2024-01-15T06:48:35;99607.81;;;2.95;100.00
23433;BME280;41331;45.412;10.992;2024-01-15T06:51:03;99606.63;;;3.01;100.00
23433;BME280;41331;45.412;10.992;2024-01-15T06:53:31;99617.28;;;2.93;100.00
23433;BME280;41331;45.412;10.992;2024-01-15T06:56:02;99618.47;;;2.87;100.00
23433;BME280;41331;45.412;10.992;2024-01-15T06:58:32;99616.56;;;2.87;100.00
23433;BME280;41331;45.412;10.992;2024-01-15T07:01:00;99619.94;;;2.79;100.00
23433;BME280;41331;45.412;10.992;2024-01-15T07:03:28;99612.56;;;2.84;100.00
23433;BME280;41331;45.412;10.992;2024-01-15T07:05:56;99609.69;;;2.95;100.00
23433;BME280;41331;45.412;10.992;2024-01-15T07:08:24;99610.81;;;2.94;100.00
23433;BME280;41331;45.412;10.992;2024-01-15T07:10:53;99615.59;;;2.97;100.00
23433;BME280;41331;45.412;10.992;2024-01-15T07:13:21;99609.13;;;2.98;100.00
23433;BME280;41331;45.412;10.992;2024-01-15T07:15:49;99610.22;;;2.97;100.00
23433;BME280;41331;45.412;10.992;2024-01-15T07:18:18;99602.63;;;2.99;100.00
23433;BME280;41331;45.412;10.992;2024-01-15T07:20:45;99616.47;;;3.06;100.00
23433;BME280;41331;45.412;10.992;2024-01-15T07:23:13;99615.41;;;3.07;100.00
23433;BME280;41331;45.412;10.992;2024-01-15T07:25:41;99622.47;;;3.17;100.00
23433;BME280;41331;45.412;10.992;2024-01-15T07:28:10;99618.88;;;3.21;100.00
23433;BME280;41331;45.412;10.992;2024-01-15T07:30:38;99616.19;;;3.21;100.00
23433;BME280;41331;45.412;10.992;2024-01-15T07:33:06;99614.97;;;3.41;100.00
23433;BME280;41331;45.412;10.992;2024-01-15T07:35:37;99609.59;;;3.41;100.00
23433;BME280;41331;45.412;10.992;2024-01-15T07:38:05;99624.44;;;3.38;100.00
23433;BME280;41331;45.412;10.992;2024-01-15T07:40:33;99622.94;;;3.46;100.00
23433;BME280;41331;45.412;10.992;2024-01-15T07:43:01;99625.84;;;3.50;100.00
23433;BME280;41331;45.412;10.992;2024-01-15T07:45:30;99636.16;;;3.70;100.00
23433;BME280;41331;45.412;10.992;2024-01-15T07:47:58;99636.25;;;3.79;100.00
23433;BME280;41331;45.412;10.992;2024-01-15T07:50:25;99635.84;;;3.85;100.00
23433;BME280;41331;45.412;10.992;2024-01-15T07:52:53;99633.44;;;3.98;100.00
23433;BME280;41331;45.412;10.992;2024-01-15T07:55:21;99643.75;;;3.68;100.00
23433;BME280;41331;45.412;10.992;2024-01-15T07:57:51;99638.38;;;3.41;100.00
23433;BME280;41331;45.412;10.992;2024-01-15T08:00:32;99645.50;;;3.36;100.00
23433;BME280;41331;45.412;10.992;2024-01-15T08:03:00;99642.28;;;3.34;100.00
23433;BME280;41331;45.412;10.992;2024-01-15T08:05:28;99631.72;;;3.24;100.00
23433;BME280;41331;45.412;10.992;2024-01-15T08:07:56;99630.94;;;3.37;100.00
23433;BME280;41331;45.412;10.992;2024-01-15T08:10:25;99636.09;;;3.20;100.00
23433;BME280;41331;45.412;10.992;2024-01-15T08:12:53;99630.41;;;3.35;100.00
23433;BME280;41331;45.412;10.992;2024-01-15T08:15:21;99634.81;;;3.45;100.00
23433;BME280;41331;45.412;10.992;2024-01-15T08:17:55;99635.91;;;3.44;100.00
23433;BME280;41331;45.412;10.992;2024-01-15T08:20:23;99634.63;;;3.42;100.00
23433;BME280;41331;45.412;10.992;2024-01-15T08:22:53;99644.28;;;3.43;100.00
23433;BME280;41331;45.412;10.992;2024-01-15T08:25:21;99643.25;;;3.66;100.00
23433;BME280;41331;45.412;10.992;2024-01-15T08:27:49;99649.13;;;3.68;100.00
23433;BME280;41331;45.412;10.992;2024-01-15T08:30:17;99643.47;;;3.56;100.00
23433;BME280;41331;45.412;10.992;2024-01-15T08:32:46;99639.28;;;3.63;100.00
23433;BME280;41331;45.412;10.992;2024-01-15T08:35:14;99641.06;;;3.68;100.00
23433;BME280;41331;45.412;10.992;2024-01-15T08:37:42;99631.47;;;3.76;100.00
23433;BME280;41331;45.412;10.992;2024-01-15T08:40:10;99623.47;;;3.84;100.00
23433;BME280;41331;45.412;10.992;2024-01-15T08:42:38;99633.31;;;4.03;100.00
23433;BME280;41331;45.412;10.992;2024-01-15T08:45:09;99630.56;;;4.16;100.00
23433;BME280;41331;45.412;10.992;2024-01-15T08:47:38;99631.66;;;4.15;100.00
23433;BME280;41331;45.412;10.992;2024-01-15T08:50:07;99618.81;;;4.35;100.00
23433;BME280;41331;45.412;10.992;2024-01-15T08:52:37;99625.00;;;4.35;100.00
23433;BME280;41331;45.412;10.992;2024-01-15T08:55:05;99625.03;;;4.66;100.00
23433;BME280;41331;45.412;10.992;2024-01-15T08:57:34;99622.72;;;4.74;99.61
23433;BME280;41331;45.412;10.992;2024-01-15T09:00:05;99622.44;;;4.84;99.48
23433;BME280;41331;45.412;10.992;2024-01-15T09:02:39;99627.09;;;4.92;99.69
23433;BME280;41331;45.412;10.992;2024-01-15T09:05:07;99625.47;;;4.91;100.00
23433;BME280;41331;45.412;10.992;2024-01-15T09:07:43;99612.34;;;5.46;97.21
23433;BME280;41331;45.412;10.992;2024-01-15T09:10:13;99617.34;;;5.79;94.87
23433;BME280;41331;45.412;10.992;2024-01-15T09:12:41;99610.53;;;6.25;92.84
23433;BME280;41331;45.412;10.992;2024-01-15T09:15:10;99619.63;;;6.29;91.68
23433;BME280;41331;45.412;10.992;2024-01-15T09:17:38;99620.25;;;6.09;93.82
23433;BME280;41331;45.412;10.992;2024-01-15T09:20:09;99615.28;;;5.85;95.42
23433;BME280;41331;45.412;10.992;2024-01-15T09:22:38;99615.44;;;5.88;96.01
23433;BME280;41331;45.412;10.992;2024-01-15T09:25:09;99619.63;;;6.29;94.00
23433;BME280;41331;45.412;10.992;2024-01-15T09:27:39;99610.22;;;6.44;94.01
23433;BME280;41331;45.412;10.992;2024-01-15T09:30:07;99614.75;;;6.78;92.71
23433;BME280;41331;45.412;10.992;2024-01-15T09:32:36;99614.22;;;6.38;92.90
23433;BME280;41331;45.412;10.992;2024-01-15T09:35:04;99623.38;;;5.85;95.18
23433;BME280;41331;45.412;10.992;2024-01-15T09:37:32;99627.69;;;6.46;93.82
23433;BME280;41331;45.412;10.992;2024-01-15T09:40:14;99637.06;;;6.58;91.85
23433;BME280;41331;45.412;10.992;2024-01-15T09:42:44;99637.06;;;6.58;92.08
23433;BME280;41331;45.412;10.992;2024-01-15T09:45:13;99622.16;;;6.43;93.44
23433;BME280;41331;45.412;10.992;2024-01-15T09:47:41;99615.28;;;6.54;93.43
23433;BME280;41331;45.412;10.992;2024-01-15T09:50:13;99619.84;;;6.80;91.74
23433;BME280;41331;45.412;10.992;2024-01-15T09:52:44;99619.84;;;6.71;91.87
23433;BME280;41331;45.412;10.992;2024-01-15T09:55:15;99618.28;;;6.70;91.02
23433;BME280;41331;45.412;10.992;2024-01-15T09:57:46;99613.81;;;6.74;92.51
23433;BME280;41331;45.412;10.992;2024-01-15T10:00:17;99594.47;;;7.31;90.35
23433;BME280;41331;45.412;10.992;2024-01-15T10:02:45;99608.16;;;7.35;88.52
23433;BME280;41331;45.412;10.992;2024-01-15T10:05:13;99600.22;;;7.30;88.74
23433;BME280;41331;45.412;10.992;2024-01-15T10:07:42;99602.38;;;7.07;89.78
23433;BME280;41331;45.412;10.992;2024-01-15T10:10:13;99597.94;;;7.02;90.10
23433;BME280;41331;45.412;10.992;2024-01-15T10:12:43;99587.53;;;7.21;89.64
23433;BME280;41331;45.412;10.992;2024-01-15T10:15:12;99573.19;;;7.21;89.85
23433;BME280;41331;45.412;10.992;2024-01-15T10:17:40;99572.22;;;7.25;90.18
23433;BME280;41331;45.412;10.992;2024-01-15T10:20:10;99572.38;;;7.29;90.15
23433;BME280;41331;45.412;10.992;2024-01-15T10:22:40;99566.34;;;7.74;89.88
23433;BME280;41331;45.412;10.992;2024-01-15T10:25:13;99567.94;;;7.75;87.96
23433;BME280;41331;45.412;10.992;2024-01-15T10:27:41;99568.19;;;7.61;88.43
23433;BME280;41331;45.412;10.992;2024-01-15T10:30:10;99551.09;;;7.19;91.40
23433;BME280;41331;45.412;10.992;2024-01-15T10:32:38;99550.53;;;7.34;91.54
23433;BME280;41331;45.412;10.992;2024-01-15T10:35:07;99546.03;;;7.38;91.50
23433;BME280;41331;45.412;10.992;2024-01-15T10:37:36;99545.31;;;7.29;91.69
23433;BME280;41331;45.412;10.992;2024-01-15T10:40:04;99543.97;;;7.35;91.06
23433;BME280;41331;45.412;10.992;2024-01-15T10:42:34;99535.94;;;7.89;90.32
23433;BME280;41331;45.412;10.992;2024-01-15T10:45:03;99530.31;;;8.61;86.61
23433;BME280;41331;45.412;10.992;2024-01-15T10:47:31;99528.72;;;8.14;85.58
23433;BME280;41331;45.412;10.992;2024-01-15T10:50:00;99535.53;;;7.99;87.41
23433;BME280;41331;45.412;10.992;2024-01-15T10:52:29;99536.16;;;7.63;88.98
23433;BME280;41331;45.412;10.992;2024-01-15T10:54:58;99528.44;;;7.74;90.49
23433;BME280;41331;45.412;10.992;2024-01-15T10:57:29;99525.72;;;7.53;91.94
23433;BME280;41331;45.412;10.992;2024-01-15T10:59:58;99519.97;;;7.34;92.63
23433;BME280;41331;45.412;10.992;2024-01-15T11:02:26;99516.72;;;7.40;92.98
23433;BME280;41331;45.412;10.992;2024-01-15T11:04:54;99510.38;;;7.36;92.61
23433;BME280;41331;45.412;10.992;2024-01-15T11:07:23;99510.97;;;7.42;92.96
23433;BME280;41331;45.412;10.992;2024-01-15T11:09:55;99509.78;;;7.31;94.53
23433;BME280;41331;45.412;10.992;2024-01-15T11:12:24;99497.38;;;7.30;92.19
23433;BME280;41331;45.412;10.992;2024-01-15T11:15:01;99491.47;;;7.27;92.75
23433;BME280;41331;45.412;10.992;2024-01-15T11:17:57;99495.22;;;6.93;91.32
23433;BME280;41331;45.412;10.992;2024-01-15T11:20:27;99493.03;;;7.08;93.47
23433;BME280;41331;45.412;10.992;2024-01-15T11:22:55;99501.81;;;7.05;93.11
23433;BME280;41331;45.412;10.992;2024-01-15T11:25:34;99499.00;;;6.92;98.63
23433;BME280;41331;45.412;10.992;2024-01-15T11:28:04;99489.13;;;6.96;98.76
23433;BME280;41331;45.412;10.992;2024-01-15T11:30:32;99494.03;;;7.03;99.91
23433;BME280;41331;45.412;10.992;2024-01-15T11:33:04;99483.47;;;7.10;99.42
23433;BME280;41331;45.412;10.992;2024-01-15T11:36:04;99483.84;;;7.30;99.97
23433;BME280;41331;45.412;10.992;2024-01-15T11:38:32;99480.84;;;7.22;97.95
23433;BME280;41331;45.412;10.992;2024-01-15T11:41:00;99482.72;;;7.31;98.12
23433;BME280;41331;45.412;10.992;2024-01-15T11:43:29;99468.63;;;7.16;97.51
23433;BME280;41331;45.412;10.992;2024-01-15T11:46:01;99468.44;;;7.21;98.80
23433;BME280;41331;45.412;10.992;2024-01-15T11:48:43;99462.91;;;7.18;97.83
23433;BME280;41331;45.412;10.992;2024-01-15T11:51:12;99456.72;;;7.38;98.11
23433;BME280;41331;45.412;10.992;2024-01-15T11:53:45;99439.25;;;7.48;94.99
23433;BME280;41331;45.412;10.992;2024-01-15T11:56:15;99428.38;;;8.02;93.81
23433;BME280;41331;45.412;10.992;2024-01-15T11:58:46;99430.34;;;8.14;93.45
23433;BME280;41331;45.412;10.992;2024-01-15T12:01:15;99418.63;;;8.34;92.24
23433;BME280;41331;45.412;10.992;2024-01-15T12:03:44;99414.81;;;8.60;90.40
23433;BME280;41331;45.412;10.992;2024-01-15T12:06:12;99397.88;;;8.50;88.49
23433;BME280;41331;45.412;10.992;2024-01-15T12:08:41;99383.50;;;8.62;82.53
23433;BME280;41331;45.412;10.992;2024-01-15T12:11:13;99379.53;;;8.84;82.35
23433;BME280;41331;45.412;10.992;2024-01-15T12:13:41;99367.25;;;9.15;80.13
23433;BME280;41331;45.412;10.992;2024-01-15T12:16:09;99360.06;;;9.22;76.69
23433;BME280;41331;45.412;10.992;2024-01-15T12:18:37;99350.59;;;9.44;77.36
23433;BME280;41331;45.412;10.992;2024-01-15T12:21:05;99344.94;;;9.49;77.44
23433;BME280;41331;45.412;10.992;2024-01-15T12:23:33;99341.66;;;9.16;77.83
23433;BME280;41331;45.412;10.992;2024-01-15T12:26:01;99338.06;;;9.40;78.84
23433;BME280;41331;45.412;10.992;2024-01-15T12:28:29;99327.84;;;9.21;79.33
23433;BME280;41331;45.412;10.992;2024-01-15T12:30:57;99331.09;;;9.26;78.37
23433;BME280;41331;45.412;10.992;2024-01-15T12:33:27;99327.28;;;8.87;79.35
23433;BME280;41331;45.412;10.992;2024-01-15T12:35:55;99325.91;;;8.93;80.69
23433;BME280;41331;45.412;10.992;2024-01-15T12:38:23;99321.03;;;8.99;80.14
23433;BME280;41331;45.412;10.992;2024-01-15T12:40:51;99328.19;;;9.19;79.93
23433;BME280;41331;45.412;10.992;2024-01-15T12:43:19;99318.88;;;9.04;80.89
23433;BME280;41331;45.412;10.992;2024-01-15T12:45:47;99314.09;;;9.14;80.81
23433;BME280;41331;45.412;10.992;2024-01-15T12:48:17;99304.25;;;9.09;79.96
23433;BME280;41331;45.412;10.992;2024-01-15T12:50:46;99303.44;;;9.08;81.29
23433;BME280;41331;45.412;10.992;2024-01-15T12:53:15;99297.84;;;9.01;82.38
23433;BME280;41331;45.412;10.992;2024-01-15T12:55:43;99295.78;;;8.98;81.45
23433;BME280;41331;45.412;10.992;2024-01-15T12:58:11;99293.66;;;9.04;81.59
23433;BME280;41331;45.412;10.992;2024-01-15T13:00:38;99290.84;;;8.88;83.20